sensor_id;sensor_type;location;lat;lon;timestamp;P1;durP1;ratioP1;P2;durP2;ratioP2
9912;SDS011;41380;52.548;13.344;2022-09-25T00:00:59;15.10;;;13.75;;
9912;SDS011;41380;52.548;13.344;2022-09-25T00:03:28;15.48;;;14.07;;
9912;SDS011;41380;52.548;13.344;2022-09-25T00:06:02;15.85;;;14.25;;
9912;SDS011;41380;52.548;13.344;2022-09-25T00:08:32;15.10;;;13.80;;
9912;SDS011;41380;52.548;13.344;2022-09-25T00:11:04;16.00;;;14.48;;
9912;SDS011;41380;52.548;13.344;2022-09-25T00:13:33;17.85;;;16.20;;
9912;SDS011;41380;52.548;13.344;2022-09-25T00:16:01;16.17;;;14.57;;
9912;SDS011;41380;52.548;13.344;2022-09-25T00:18:28;16.70;;;15.13;;
9912;SDS011;41380;52.548;13.344;2022-09-25T00:21:14;14.25;;;13.05;;
9912;SDS011;41380;52.548;13.344;2022-09-25T00:23:43;16.65;;;15.05;;
9912;SDS011;41380;52.548;13.344;2022-09-25T00:26:14;15.90;;;14.50;;
9912;SDS011;41380;52.548;13.344;2022-09-25T00:28:42;15.50;;;14.10;;
9912;SDS011;41380;52.548;13.344;2022-09-25T00:31:10;14.88;;;13.48;;
9912;SDS011;41380;52.548;13.344;2022-09-25T00:33:48;15.63;;;14.23;;
9912;SDS011;41380;52.548;13.344;2022-09-25T00:36:15;15.63;;;14.02;;
9912;SDS011;41380;52.548;13.344;2022-09-25T00:38:44;14.77;;;13.40;;
9912;SDS011;41380;52.548;13.344;2022-09-25T00:41:13;14.52;;;13.23;;
9912;SDS011;41380;52.548;13.344;2022-09-25T00:43:42;14.48;;;13.18;;
9912;SDS011;41380;52.548;13.344;2022-09-25T00:46:15;14.77;;;13.48;;
9912;SDS011;41380;52.548;13.344;2022-09-25T00:48:47;14.60;;;13.30;;
9912;SDS011;41380;52.548;13.344;2022-09-25T00:51:17;15.43;;;13.93;;
9912;SDS011;41380;52.548;13.344;2022-09-25T00:53:57;14.32;;;12.88;;
9912;SDS011;41380;52.548;13.344;2022-09-25T00:56:27;14.68;;;13.35;;
9912;SDS011;41380;52.548;13.344;2022-09-25T00:58:59;14.20;;;12.80;;
9912;SDS011;41380;52.548;13.344;2022-09-25T01:01:26;16.73;;;15.20;;
9912;SDS011;41380;52.548;13.344;2022-09-25T01:03:53;16.15;;;14.65;;
9912;SDS011;41380;52.548;13.344;2022-09-25T01:06:21;14.45;;;13.15;;
9912;SDS011;41380;52.548;13.344;2022-09-25T01:08:50;14.35;;;13.10;;
9912;SDS011;41380;52.548;13.344;2022-09-25T01:11:19;14.75;;;13.43;;
9912;SDS011;41380;52.548;13.344;2022-09-25T01:13:46;15.13;;;13.75;;
9912;SDS011;41380;52.548;13.344;2022-09-25T01:16:18;14.40;;;13.00;;
9912;SDS011;41380;52.548;13.344;2022-09-25T01:18:57;15.77;;;14.27;;
9912;SDS011;41380;52.548;13.344;2022-09-25T01:21:32;14.52;;;13.23;;
9912;SDS011;41380;52.548;13.344;2022-09-25T01:30:27;14.60;;;13.27;;
9912;SDS011;41380;52.548;13.344;2022-09-25T01:33:01;12.82;;;11.73;;
9912;SDS011;41380;52.548;13.344;2022-09-25T01:35:35;13.25;;;11.82;;
9912;SDS011;41380;52.548;13.344;2022-09-25T01:38:12;12.73;;;11.65;;
9912;SDS011;41380;52.548;13.344;2022-09-25T01:40:49;13.95;;;12.65;;
9912;SDS011;41380;52.548;13.344;2022-09-25T01:43:24;13.80;;;12.60;;
9912;SDS011;41380;52.548;13.344;2022-09-25T01:45:57;13.57;;;12.38;;
9912;SDS011;41380;52.548;13.344;2022-09-25T01:48:29;13.48;;;12.25;;
9912;SDS011;41380;52.548;13.344;2022-09-25T01:51:00;13.77;;;12.47;;
9912;SDS011;41380;52.548;13.344;2022-09-25T01:53:31;13.95;;;12.60;;
9912;SDS011;41380;52.548;13.344;2022-09-25T01:56:05;13.27;;;12.07;;
9912;SDS011;41380;52.548;13.344;2022-09-25T01:58:38;13.02;;;11.73;;
9912;SDS011;41380;52.548;13.344;2022-09-25T02:01:15;13.73;;;12.32;;
9912;SDS011;41380;52.548;13.344;2022-09-25T02:03:52;12.70;;;11.60;;
9912;SDS011;41380;52.548;13.344;2022-09-25T02:06:24;14.50;;;13.00;;
9912;SDS011;41380;52.548;13.344;2022-09-25T02:08:54;12.68;;;11.48;;
9912;SDS011;41380;52.548;13.344;2022-09-25T02:11:25;11.30;;;10.30;;
9912;SDS011;41380;52.548;13.344;2022-09-25T02:14:00;12.05;;;10.93;;
9912;SDS011;41380;52.548;13.344;2022-09-25T02:16:35;9.85;;;8.95;;
9912;SDS011;41380;52.548;13.344;2022-09-25T02:19:07;10.60;;;9.50;;
9912;SDS011;41380;52.548;13.344;2022-09-25T02:21:54;11.20;;;9.88;;
9912;SDS011;41380;52.548;13.344;2022-09-25T02:24:32;10.80;;;9.85;;
9912;SDS011;41380;52.548;13.344;2022-09-25T02:27:03;10.27;;;9.38;;
9912;SDS011;41380;52.548;13.344;2022-09-25T02:29:32;9.48;;;8.65;;
9912;SDS011;41380;52.548;13.344;2022-09-25T02:32:03;10.18;;;9.25;;
9912;SDS011;41380;52.548;13.344;2022-09-25T02:34:33;9.70;;;8.85;;
9912;SDS011;41380;52.548;13.344;2022-09-25T02:37:00;8.97;;;8.17;;
9912;SDS011;41380;52.548;13.344;2022-09-25T02:39:27;9.63;;;8.73;;
9912;SDS011;41380;52.548;13.344;2022-09-25T02:41:59;9.75;;;8.60;;
9912;SDS011;41380;52.548;13.344;2022-09-25T02:44:48;8.15;;;7.45;;
9912;SDS011;41380;52.548;13.344;2022-09-25T02:47:30;8.80;;;8.02;;
9912;SDS011;41380;52.548;13.344;2022-09-25T02:50:03;9.40;;;8.55;;
9912;SDS011;41380;52.548;13.344;2022-09-25T02:52:40;8.93;;;8.02;;
9912;SDS011;41380;52.548;13.344;2022-09-25T02:55:14;8.48;;;7.57;;
9912;SDS011;41380;52.548;13.344;2022-09-25T02:57:48;7.63;;;6.93;;
9912;SDS011;41380;52.548;13.344;2022-09-25T03:00:19;7.63;;;6.93;;
9912;SDS011;41380;52.548;13.344;2022-09-25T03:02:52;7.53;;;6.93;;
9912;SDS011;41380;52.548;13.344;2022-09-25T03:05:23;7.38;;;6.78;;
9912;SDS011;41380;52.548;13.344;2022-09-25T03:07:51;7.97;;;7.20;;
9912;SDS011;41380;52.548;13.344;2022-09-25T03:10:36;7.75;;;7.00;;
9912;SDS011;41380;52.548;13.344;2022-09-25T03:13:16;7.68;;;7.03;;
9912;SDS011;41380;52.548;13.344;2022-09-25T03:15:45;11.48;;;7.45;;
9912;SDS011;41380;52.548;13.344;2022-09-25T03:18:17;7.55;;;6.85;;
9912;SDS011;41380;52.548;13.344;2022-09-25T03:20:44;6.65;;;6.00;;
9912;SDS011;41380;52.548;13.344;2022-09-25T03:23:11;8.18;;;7.38;;
9912;SDS011;41380;52.548;13.344;2022-09-25T03:25:39;7.63;;;7.03;;
9912;SDS011;41380;52.548;13.344;2022-09-25T03:28:07;7.82;;;7.10;;
9912;SDS011;41380;52.548;13.344;2022-09-25T03:30:35;9.60;;;7.82;;
9912;SDS011;41380;52.548;13.344;2022-09-25T03:33:05;8.68;;;7.78;;
9912;SDS011;41380;52.548;13.344;2022-09-25T03:35:35;8.25;;;6.97;;
9912;SDS011;41380;52.548;13.344;2022-09-25T03:38:02;8.82;;;7.97;;
9912;SDS011;41380;52.548;13.344;2022-09-25T03:40:29;8.68;;;7.85;;
9912;SDS011;41380;52.548;13.344;2022-09-25T03:42:56;9.00;;;7.68;;
9912;SDS011;41380;52.548;13.344;2022-09-25T03:45:22;8.48;;;7.53;;
9912;SDS011;41380;52.548;13.344;2022-09-25T03:47:50;8.80;;;7.90;;
9912;SDS011;41380;52.548;13.344;2022-09-25T03:50:17;8.30;;;7.50;;
9912;SDS011;41380;52.548;13.344;2022-09-25T03:52:45;8.00;;;7.40;;
9912;SDS011;41380;52.548;13.344;2022-09-25T03:55:12;9.38;;;8.20;;
9912;SDS011;41380;52.548;13.344;2022-09-25T03:57:39;9.27;;;8.38;;
9912;SDS011;41380;52.548;13.344;2022-09-25T04:00:07;7.93;;;7.15;;
9912;SDS011;41380;52.548;13.344;2022-09-25T04:02:35;8.50;;;7.40;;
9912;SDS011;41380;52.548;13.344;2022-09-25T04:05:02;8.43;;;7.53;;
9912;SDS011;41380;52.548;13.344;2022-09-25T04:07:29;8.07;;;7.38;;
9912;SDS011;41380;52.548;13.344;2022-09-25T04:09:58;9.50;;;8.65;;
9912;SDS011;41380;52.548;13.344;2022-09-25T04:12:25;8.95;;;8.05;;
9912;SDS011;41380;52.548;13.344;2022-09-25T04:14:52;9.35;;;8.55;;
9912;SDS011;41380;52.548;13.344;2022-09-25T04:17:19;8.52;;;7.72;;
9912;SDS011;41380;52.548;13.344;2022-09-25T04:19:46;9.55;;;8.65;;
9912;SDS011;41380;52.548;13.344;2022-09-25T04:22:13;8.47;;;7.70;;
9912;SDS011;41380;52.548;13.344;2022-09-25T04:24:42;9.20;;;8.32;;
9912;SDS011;41380;52.548;13.344;2022-09-25T04:27:22;9.73;;;8.73;;
9912;SDS011;41380;52.548;13.344;2022-09-25T04:30:03;9.23;;;8.32;;
9912;SDS011;41380;52.548;13.344;2022-09-25T04:32:30;9.65;;;8.75;;
9912;SDS011;41380;52.548;13.344;2022-09-25T04:35:16;9.10;;;8.30;;
9912;SDS011;41380;52.548;13.344;2022-09-25T04:37:44;10.48;;;9.48;;
9912;SDS011;41380;52.548;13.344;2022-09-25T04:40:11;9.60;;;8.70;;
9912;SDS011;41380;52.548;13.344;2022-09-25T04:42:39;10.25;;;9.23;;
9912;SDS011;41380;52.548;13.344;2022-09-25T04:45:07;9.70;;;8.77;;
9912;SDS011;41380;52.548;13.344;2022-09-25T04:47:35;10.23;;;9.20;;
9912;SDS011;41380;52.548;13.344;2022-09-25T04:50:03;10.13;;;9.18;;
9912;SDS011;41380;52.548;13.344;2022-09-25T04:52:32;9.90;;;9.00;;
9912;SDS011;41380;52.548;13.344;2022-09-25T04:54:59;10.48;;;9.40;;
9912;SDS011;41380;52.548;13.344;2022-09-25T04:57:27;9.80;;;8.80;;
9912;SDS011;41380;52.548;13.344;2022-09-25T04:59:56;9.45;;;8.65;;
9912;SDS011;41380;52.548;13.344;2022-09-25T05:02:25;9.60;;;8.68;;
9912;SDS011;41380;52.548;13.344;2022-09-25T05:04:54;9.43;;;8.63;;
9912;SDS011;41380;52.548;13.344;2022-09-25T05:07:21;9.68;;;8.77;;
9912;SDS011;41380;52.548;13.344;2022-09-25T05:09:48;10.10;;;9.10;;
9912;SDS011;41380;52.548;13.344;2022-09-25T05:12:15;10.43;;;9.43;;
9912;SDS011;41380;52.548;13.344;2022-09-25T05:14:42;10.02;;;9.10;;
9912;SDS011;41380;52.548;13.344;2022-09-25T05:17:10;10.52;;;9.45;;
9912;SDS011;41380;52.548;13.344;2022-09-25T05:19:39;10.15;;;9.20;;
9912;SDS011;41380;52.548;13.344;2022-09-25T05:22:06;10.18;;;9.20;;
9912;SDS011;41380;52.548;13.344;2022-09-25T05:24:33;10.52;;;9.50;;
9912;SDS011;41380;52.548;13.344;2022-09-25T05:27:02;10.40;;;9.32;;
9912;SDS011;41380;52.548;13.344;2022-09-25T05:29:30;10.20;;;9.30;;
9912;SDS011;41380;52.548;13.344;2022-09-25T05:31:56;11.43;;;10.25;;
9912;SDS011;41380;52.548;13.344;2022-09-25T05:34:25;12.43;;;9.00;;
9912;SDS011;41380;52.548;13.344;2022-09-25T05:36:52;10.85;;;9.80;;
9912;SDS011;41380;52.548;13.344;2022-09-25T05:39:19;10.43;;;9.48;;
9912;SDS011;41380;52.548;13.344;2022-09-25T05:41:47;10.38;;;9.38;;
9912;SDS011;41380;52.548;13.344;2022-09-25T05:44:14;11.10;;;10.10;;
9912;SDS011;41380;52.548;13.344;2022-09-25T05:46:42;9.75;;;8.75;;
9912;SDS011;41380;52.548;13.344;2022-09-25T05:49:10;9.63;;;8.82;;
9912;SDS011;41380;52.548;13.344;2022-09-25T05:51:41;11.00;;;9.90;;
9912;SDS011;41380;52.548;13.344;2022-09-25T05:54:09;10.63;;;9.63;;
9912;SDS011;41380;52.548;13.344;2022-09-25T05:56:36;10.77;;;9.77;;
9912;SDS011;41380;52.548;13.344;2022-09-25T05:59:03;11.20;;;10.10;;
9912;SDS011;41380;52.548;13.344;2022-09-25T06:01:30;11.05;;;9.95;;
9912;SDS011;41380;52.548;13.344;2022-09-25T06:03:57;11.55;;;10.45;;
9912;SDS011;41380;52.548;13.344;2022-09-25T06:06:24;10.32;;;9.35;;
9912;SDS011;41380;52.548;13.344;2022-09-25T06:08:53;11.05;;;10.15;;
9912;SDS011;41380;52.548;13.344;2022-09-25T06:11:20;11.13;;;10.13;;
9912;SDS011;41380;52.548;13.344;2022-09-25T06:13:47;10.57;;;9.57;;
9912;SDS011;41380;52.548;13.344;2022-09-25T06:16:15;10.85;;;9.80;;
9912;SDS011;41380;52.548;13.344;2022-09-25T06:18:44;10.25;;;9.15;;
9912;SDS011;41380;52.548;13.344;2022-09-25T06:21:11;12.30;;;11.10;;
9912;SDS011;41380;52.548;13.344;2022-09-25T06:23:40;10.43;;;9.43;;
9912;SDS011;41380;52.548;13.344;2022-09-25T06:26:10;11.48;;;10.27;;
9912;SDS011;41380;52.548;13.344;2022-09-25T06:28:37;11.07;;;9.98;;
9912;SDS011;41380;52.548;13.344;2022-09-25T06:31:04;10.50;;;9.60;;
9912;SDS011;41380;52.548;13.344;2022-09-25T06:33:32;11.60;;;10.60;;
9912;SDS011;41380;52.548;13.344;2022-09-25T06:35:58;11.13;;;10.13;;
9912;SDS011;41380;52.548;13.344;2022-09-25T06:38:25;11.45;;;10.35;;
9912;SDS011;41380;52.548;13.344;2022-09-25T06:40:52;10.68;;;9.68;;
9912;SDS011;41380;52.548;13.344;2022-09-25T06:43:21;12.75;;;10.70;;
9912;SDS011;41380;52.548;13.344;2022-09-25T06:45:47;11.25;;;10.05;;
9912;SDS011;41380;52.548;13.344;2022-09-25T06:48:15;11.25;;;10.13;;
9912;SDS011;41380;52.548;13.344;2022-09-25T06:50:44;11.45;;;9.88;;
9912;SDS011;41380;52.548;13.344;2022-09-25T06:53:13;10.70;;;9.57;;
9912;SDS011;41380;52.548;13.344;2022-09-25T06:55:40;11.27;;;10.15;;
9912;SDS011;41380;52.548;13.344;2022-09-25T06:58:10;11.73;;;10.52;;
9912;SDS011;41380;52.548;13.344;2022-09-25T07:00:45;10.85;;;9.85;;
9912;SDS011;41380;52.548;13.344;2022-09-25T07:03:13;11.23;;;10.13;;
9912;SDS011;41380;52.548;13.344;2022-09-25T07:05:58;10.35;;;9.48;;
9912;SDS011;41380;52.548;13.344;2022-09-25T07:08:25;10.93;;;9.93;;
9912;SDS011;41380;52.548;13.344;2022-09-25T07:10:53;10.82;;;9.35;;
9912;SDS011;41380;52.548;13.344;2022-09-25T07:13:22;12.65;;;11.38;;
9912;SDS011;41380;52.548;13.344;2022-09-25T07:15:51;11.45;;;9.98;;
9912;SDS011;41380;52.548;13.344;2022-09-25T07:18:19;13.18;;;11.07;;
9912;SDS011;41380;52.548;13.344;2022-09-25T07:20:47;11.07;;;9.95;;
9912;SDS011;41380;52.548;13.344;2022-09-25T07:23:14;12.63;;;11.32;;
9912;SDS011;41380;52.548;13.344;2022-09-25T07:25:42;10.75;;;9.70;;
9912;SDS011;41380;52.548;13.344;2022-09-25T07:28:10;11.85;;;10.57;;
9912;SDS011;41380;52.548;13.344;2022-09-25T07:30:38;11.45;;;10.35;;
9912;SDS011;41380;52.548;13.344;2022-09-25T07:33:07;12.98;;;10.77;;
9912;SDS011;41380;52.548;13.344;2022-09-25T07:35:37;11.75;;;10.55;;
9912;SDS011;41380;52.548;13.344;2022-09-25T07:38:05;11.10;;;9.98;;
9912;SDS011;41380;52.548;13.344;2022-09-25T07:40:32;10.98;;;9.98;;
9912;SDS011;41380;52.548;13.344;2022-09-25T07:42:59;11.13;;;10.02;;
9912;SDS011;41380;52.548;13.344;2022-09-25T07:45:35;11.32;;;10.23;;
9912;SDS011;41380;52.548;13.344;2022-09-25T07:48:02;11.35;;;10.25;;
9912;SDS011;41380;52.548;13.344;2022-09-25T07:50:31;11.68;;;10.68;;
9912;SDS011;41380;52.548;13.344;2022-09-25T07:52:59;12.00;;;11.00;;
9912;SDS011;41380;52.548;13.344;2022-09-25T07:55:26;10.93;;;9.93;;
9912;SDS011;41380;52.548;13.344;2022-09-25T07:57:55;12.05;;;10.75;;
9912;SDS011;41380;52.548;13.344;2022-09-25T08:00:22;11.60;;;10.38;;
9912;SDS011;41380;52.548;13.344;2022-09-25T08:02:57;12.10;;;10.55;;
9912;SDS011;41380;52.548;13.344;2022-09-25T08:05:28;12.55;;;10.13;;
9912;SDS011;41380;52.548;13.344;2022-09-25T08:07:57;12.43;;;11.23;;
9912;SDS011;41380;52.548;13.344;2022-09-25T08:10:25;12.00;;;10.80;;
9912;SDS011;41380;52.548;13.344;2022-09-25T08:12:53;12.23;;;10.98;;
9912;SDS011;41380;52.548;13.344;2022-09-25T08:15:20;14.50;;;12.27;;
9912;SDS011;41380;52.548;13.344;2022-09-25T08:17:47;11.63;;;10.60;;
9912;SDS011;41380;52.548;13.344;2022-09-25T08:20:14;12.75;;;11.48;;
9912;SDS011;41380;52.548;13.344;2022-09-25T08:22:42;11.15;;;10.15;;
9912;SDS011;41380;52.548;13.344;2022-09-25T08:25:12;13.60;;;10.48;;
9912;SDS011;41380;52.548;13.344;2022-09-25T08:27:39;11.15;;;10.02;;
9912;SDS011;41380;52.548;13.344;2022-09-25T08:30:08;12.60;;;11.30;;
9912;SDS011;41380;52.548;13.344;2022-09-25T08:32:38;11.40;;;10.20;;
9912;SDS011;41380;52.548;13.344;2022-09-25T08:35:05;11.93;;;10.82;;
9912;SDS011;41380;52.548;13.344;2022-09-25T08:37:33;13.15;;;11.15;;
9912;SDS011;41380;52.548;13.344;2022-09-25T08:40:00;11.90;;;10.70;;
9912;SDS011;41380;52.548;13.344;2022-09-25T08:42:29;11.95;;;10.73;;
9912;SDS011;41380;52.548;13.344;2022-09-25T08:45:01;14.32;;;11.25;;
9912;SDS011;41380;52.548;13.344;2022-09-25T08:47:48;11.45;;;10.45;;
9912;SDS011;41380;52.548;13.344;2022-09-25T08:50:34;13.48;;;11.95;;
9912;SDS011;41380;52.548;13.344;2022-09-25T08:53:10;12.68;;;11.38;;
9912;SDS011;41380;52.548;13.344;2022-09-25T08:55:45;12.55;;;11.40;;
9912;SDS011;41380;52.548;13.344;2022-09-25T08:58:35;12.77;;;11.55;;
9912;SDS011;41380;52.548;13.344;2022-09-25T09:01:07;13.60;;;12.43;;
9912;SDS011;41380;52.548;13.344;2022-09-25T09:03:41;13.05;;;11.85;;
9912;SDS011;41380;52.548;13.344;2022-09-25T09:06:13;13.15;;;11.77;;
9912;SDS011;41380;52.548;13.344;2022-09-25T09:08:45;13.95;;;12.45;;
9912;SDS011;41380;52.548;13.344;2022-09-25T09:11:19;13.70;;;12.25;;
9912;SDS011;41380;52.548;13.344;2022-09-25T09:13:51;13.25;;;11.88;;
9912;SDS011;41380;52.548;13.344;2022-09-25T09:16:22;12.60;;;11.30;;
9912;SDS011;41380;52.548;13.344;2022-09-25T09:18:55;12.93;;;11.63;;
9912;SDS011;41380;52.548;13.344;2022-09-25T09:21:27;13.98;;;11.93;;
9912;SDS011;41380;52.548;13.344;2022-09-25T09:24:04;13.73;;;12.45;;
9912;SDS011;41380;52.548;13.344;2022-09-25T09:26:44;12.32;;;11.15;;
9912;SDS011;41380;52.548;13.344;2022-09-25T09:29:25;11.82;;;10.73;;
9912;SDS011;41380;52.548;13.344;2022-09-25T09:32:15;13.70;;;12.40;;
9912;SDS011;41380;52.548;13.344;2022-09-25T09:34:55;15.43;;;13.77;;
9912;SDS011;41380;52.548;13.344;2022-09-25T09:37:33;11.77;;;10.63;;
9912;SDS011;41380;52.548;13.344;2022-09-25T09:43:13;12.23;;;10.95;;
9912;SDS011;41380;52.548;13.344;2022-09-25T09:45:51;16.65;;;14.85;;
9912;SDS011;41380;52.548;13.344;2022-09-25T09:48:24;18.35;;;16.38;;
9912;SDS011;41380;52.548;13.344;2022-09-25T09:51:10;17.23;;;15.57;;
9912;SDS011;41380;52.548;13.344;2022-09-25T09:53:43;13.93;;;12.52;;
9912;SDS011;41380;52.548;13.344;2022-09-25T09:56:15;11.43;;;10.43;;
9912;SDS011;41380;52.548;13.344;2022-09-25T09:58:45;11.68;;;10.55;;
9912;SDS011;41380;52.548;13.344;2022-09-25T10:01:18;13.07;;;11.88;;
9912;SDS011;41380;52.548;13.344;2022-09-25T10:03:48;11.85;;;10.80;;
9912;SDS011;41380;52.548;13.344;2022-09-25T10:06:22;12.93;;;11.70;;
9912;SDS011;41380;52.548;13.344;2022-09-25T10:08:56;12.13;;;10.90;;
9912;SDS011;41380;52.548;13.344;2022-09-25T10:11:25;11.43;;;10.32;;
9912;SDS011;41380;52.548;13.344;2022-09-25T10:13:55;13.05;;;11.85;;
9912;SDS011;41380;52.548;13.344;2022-09-25T10:16:26;16.27;;;12.65;;
9912;SDS011;41380;52.548;13.344;2022-09-25T10:18:55;13.13;;;11.93;;
9912;SDS011;41380;52.548;13.344;2022-09-25T10:21:37;12.02;;;10.93;;
9912;SDS011;41380;52.548;13.344;2022-09-25T10:24:08;12.98;;;11.68;;
9912;SDS011;41380;52.548;13.344;2022-09-25T10:26:37;13.95;;;12.57;;
9912;SDS011;41380;52.548;13.344;2022-09-25T10:29:24;12.32;;;11.10;;
9912;SDS011;41380;52.548;13.344;2022-09-25T10:31:57;13.88;;;12.57;;
9912;SDS011;41380;52.548;13.344;2022-09-25T10:34:27;13.05;;;11.80;;
9912;SDS011;41380;52.548;13.344;2022-09-25T10:36:56;12.27;;;11.15;;
9912;SDS011;41380;52.548;13.344;2022-09-25T10:39:25;12.75;;;11.55;;
9912;SDS011;41380;52.548;13.344;2022-09-25T10:41:54;11.55;;;10.55;;
9912;SDS011;41380;52.548;13.344;2022-09-25T10:44:27;11.52;;;10.43;;
9912;SDS011;41380;52.548;13.344;2022-09-25T10:47:25;11.95;;;10.85;;
9912;SDS011;41380;52.548;13.344;2022-09-25T10:50:14;13.07;;;11.05;;
9912;SDS011;41380;52.548;13.344;2022-09-25T10:52:45;13.57;;;11.80;;
9912;SDS011;41380;52.548;13.344;2022-09-25T10:55:18;12.20;;;10.77;;
9912;SDS011;41380;52.548;13.344;2022-09-25T10:57:51;11.68;;;10.68;;
9912;SDS011;41380;52.548;13.344;2022-09-25T11:00:25;10.38;;;9.38;;
9912;SDS011;41380;52.548;13.344;2022-09-25T11:02:54;10.10;;;9.20;;
9912;SDS011;41380;52.548;13.344;2022-09-25T11:05:24;10.73;;;9.60;;
9912;SDS011;41380;52.548;13.344;2022-09-25T11:07:56;11.07;;;9.98;;
9912;SDS011;41380;52.548;13.344;2022-09-25T11:10:26;11.88;;;10.20;;
9912;SDS011;41380;52.548;13.344;2022-09-25T11:12:54;10.52;;;9.60;;
9912;SDS011;41380;52.548;13.344;2022-09-25T11:15:25;10.07;;;8.93;;
9912;SDS011;41380;52.548;13.344;2022-09-25T11:17:54;10.82;;;9.82;;
9912;SDS011;41380;52.548;13.344;2022-09-25T11:20:24;9.63;;;7.97;;
9912;SDS011;41380;52.548;13.344;2022-09-25T11:23:00;8.38;;;7.47;;
9912;SDS011;41380;52.548;13.344;2022-09-25T11:25:33;8.23;;;7.53;;
9912;SDS011;41380;52.548;13.344;2022-09-25T11:28:15;7.53;;;6.82;;
9912;SDS011;41380;52.548;13.344;2022-09-25T11:30:48;8.50;;;7.55;;
9912;SDS011;41380;52.548;13.344;2022-09-25T11:33:23;8.00;;;7.30;;
9912;SDS011;41380;52.548;13.344;2022-09-25T11:35:56;8.55;;;7.28;;
9912;SDS011;41380;52.548;13.344;2022-09-25T11:38:29;7.50;;;6.90;;
9912;SDS011;41380;52.548;13.344;2022-09-25T11:41:22;8.20;;;7.40;;
9912;SDS011;41380;52.548;13.344;2022-09-25T11:43:57;8.05;;;7.35;;
9912;SDS011;41380;52.548;13.344;2022-09-25T11:46:35;7.53;;;6.82;;
9912;SDS011;41380;52.548;13.344;2022-09-25T11:49:15;7.35;;;6.60;;
9912;SDS011;41380;52.548;13.344;2022-09-25T11:55:01;7.43;;;6.82;;
9912;SDS011;41380;52.548;13.344;2022-09-25T11:57:52;8.05;;;7.25;;
9912;SDS011;41380;52.548;13.344;2022-09-25T12:00:34;7.60;;;7.00;;
9912;SDS011;41380;52.548;13.344;2022-09-25T12:03:11;8.75;;;6.93;;
9912;SDS011;41380;52.548;13.344;2022-09-25T12:08:50;7.55;;;6.75;;
9912;SDS011;41380;52.548;13.344;2022-09-25T12:11:28;7.55;;;6.85;;
9912;SDS011;41380;52.548;13.344;2022-09-25T12:14:06;8.23;;;7.53;;
9912;SDS011;41380;52.548;13.344;2022-09-25T12:16:43;7.82;;;7.15;;
9912;SDS011;41380;52.548;13.344;2022-09-25T12:19:18;8.07;;;7.38;;
9912;SDS011;41380;52.548;13.344;2022-09-25T12:21:54;8.70;;;7.90;;
9912;SDS011;41380;52.548;13.344;2022-09-25T12:24:46;8.18;;;7.43;;
9912;SDS011;41380;52.548;13.344;2022-09-25T12:27:24;7.55;;;6.85;;
9912;SDS011;41380;52.548;13.344;2022-09-25T12:30:14;7.07;;;6.45;;
9912;SDS011;41380;52.548;13.344;2022-09-25T12:32:50;7.50;;;6.90;;
9912;SDS011;41380;52.548;13.344;2022-09-25T12:35:31;7.40;;;6.70;;
9912;SDS011;41380;52.548;13.344;2022-09-25T12:38:09;7.43;;;6.30;;
9912;SDS011;41380;52.548;13.344;2022-09-25T12:40:43;7.13;;;6.43;;
9912;SDS011;41380;52.548;13.344;2022-09-25T12:43:16;7.22;;;6.53;;
9912;SDS011;41380;52.548;13.344;2022-09-25T12:45:51;6.80;;;6.20;;
9912;SDS011;41380;52.548;13.344;2022-09-25T12:48:24;8.05;;;6.00;;
9912;SDS011;41380;52.548;13.344;2022-09-25T12:50:57;6.63;;;5.90;;
9912;SDS011;41380;52.548;13.344;2022-09-25T12:53:30;6.13;;;5.63;;
9912;SDS011;41380;52.548;13.344;2022-09-25T12:56:02;7.03;;;6.38;;
9912;SDS011;41380;52.548;13.344;2022-09-25T12:58:43;6.72;;;6.13;;
9912;SDS011;41380;52.548;13.344;2022-09-25T13:01:16;8.43;;;7.63;;
9912;SDS011;41380;52.548;13.344;2022-09-25T13:03:50;7.00;;;6.40;;
9912;SDS011;41380;52.548;13.344;2022-09-25T13:06:24;6.50;;;5.95;;
9912;SDS011;41380;52.548;13.344;2022-09-25T13:09:10;6.55;;;5.95;;
9912;SDS011;41380;52.548;13.344;2022-09-25T13:11:44;7.50;;;6.72;;
9912;SDS011;41380;52.548;13.344;2022-09-25T13:14:17;6.57;;;6.00;;
9912;SDS011;41380;52.548;13.344;2022-09-25T13:16:54;6.90;;;6.30;;
9912;SDS011;41380;52.548;13.344;2022-09-25T13:19:22;6.70;;;6.10;;
9912;SDS011;41380;52.548;13.344;2022-09-25T13:21:51;7.50;;;6.13;;
9912;SDS011;41380;52.548;13.344;2022-09-25T13:24:29;7.70;;;6.88;;
9912;SDS011;41380;52.548;13.344;2022-09-25T13:27:04;6.90;;;6.35;;
9912;SDS011;41380;52.548;13.344;2022-09-25T13:29:32;7.68;;;6.97;;
9912;SDS011;41380;52.548;13.344;2022-09-25T13:32:04;8.05;;;7.25;;
9912;SDS011;41380;52.548;13.344;2022-09-25T13:34:34;7.10;;;6.50;;
9912;SDS011;41380;52.548;13.344;2022-09-25T13:37:06;7.63;;;6.82;;
9912;SDS011;41380;52.548;13.344;2022-09-25T13:39:38;7.20;;;6.60;;
9912;SDS011;41380;52.548;13.344;2022-09-25T13:42:26;7.20;;;6.60;;
9912;SDS011;41380;52.548;13.344;2022-09-25T13:45:02;7.50;;;6.90;;
9912;SDS011;41380;52.548;13.344;2022-09-25T13:47:58;6.88;;;6.28;;
9912;SDS011;41380;52.548;13.344;2022-09-25T13:50:34;6.97;;;6.35;;
9912;SDS011;41380;52.548;13.344;2022-09-25T14:01:47;7.60;;;6.90;;
9912;SDS011;41380;52.548;13.344;2022-09-25T14:04:48;7.82;;;7.20;;
9912;SDS011;41380;52.548;13.344;2022-09-25T14:07:17;7.88;;;7.18;;
9912;SDS011;41380;52.548;13.344;2022-09-25T14:09:49;7.20;;;6.60;;
9912;SDS011;41380;52.548;13.344;2022-09-25T14:12:22;8.10;;;7.50;;
9912;SDS011;41380;52.548;13.344;2022-09-25T14:14:56;8.40;;;7.70;;
9912;SDS011;41380;52.548;13.344;2022-09-25T14:17:29;8.43;;;7.63;;
9912;SDS011;41380;52.548;13.344;2022-09-25T14:19:57;7.82;;;7.22;;
9912;SDS011;41380;52.548;13.344;2022-09-25T14:22:31;8.95;;;8.15;;
9912;SDS011;41380;52.548;13.344;2022-09-25T14:25:19;8.68;;;7.97;;
9912;SDS011;41380;52.548;13.344;2022-09-25T14:27:51;11.18;;;8.27;;
9912;SDS011;41380;52.548;13.344;2022-09-25T14:30:19;9.45;;;8.55;;
9912;SDS011;41380;52.548;13.344;2022-09-25T14:32:51;9.45;;;8.65;;
9912;SDS011;41380;52.548;13.344;2022-09-25T14:35:42;8.88;;;8.07;;
9912;SDS011;41380;52.548;13.344;2022-09-25T14:38:29;8.75;;;7.95;;
9912;SDS011;41380;52.548;13.344;2022-09-25T14:41:25;9.95;;;9.05;;
9912;SDS011;41380;52.548;13.344;2022-09-25T14:44:36;8.90;;;8.18;;
9912;SDS011;41380;52.548;13.344;2022-09-25T14:47:21;7.65;;;6.90;;
9912;SDS011;41380;52.548;13.344;2022-09-25T14:49:55;7.78;;;7.05;;
9912;SDS011;41380;52.548;13.344;2022-09-25T14:52:24;7.45;;;6.75;;
9912;SDS011;41380;52.548;13.344;2022-09-25T14:54:55;7.57;;;6.70;;
9912;SDS011;41380;52.548;13.344;2022-09-25T14:57:25;7.07;;;6.47;;
9912;SDS011;41380;52.548;13.344;2022-09-25T15:00:06;7.68;;;6.80;;
9912;SDS011;41380;52.548;13.344;2022-09-25T15:02:40;7.30;;;6.70;;
9912;SDS011;41380;52.548;13.344;2022-09-25T15:05:16;7.70;;;7.00;;
9912;SDS011;41380;52.548;13.344;2022-09-25T15:07:55;7.80;;;7.10;;
9912;SDS011;41380;52.548;13.344;2022-09-25T15:10:27;8.25;;;7.45;;
9912;SDS011;41380;52.548;13.344;2022-09-25T15:13:06;7.97;;;7.38;;
9912;SDS011;41380;52.548;13.344;2022-09-25T15:15:42;8.30;;;6.97;;
9912;SDS011;41380;52.548;13.344;2022-09-25T15:18:31;9.02;;;8.23;;
9912;SDS011;41380;52.548;13.344;2022-09-25T15:21:02;8.35;;;7.65;;
9912;SDS011;41380;52.548;13.344;2022-09-25T15:23:41;9.23;;;8.38;;
9912;SDS011;41380;52.548;13.344;2022-09-25T15:26:22;10.25;;;9.32;;
9912;SDS011;41380;52.548;13.344;2022-09-25T15:28:52;8.30;;;7.57;;